Wexford, Ireland
Current Conditions -  °F | °C
As of 9:30 PM on Tuesday 25 Nov 2014 (Local Time) from EIWF Reporting Station
Clear Clear  
Wind Chill: 32°   Ceiling: Unl
Heat Index: 37°   Visibility: 6mi
Dew Point: 36°   Wind: 7mph
Humidity: 93%   Direction: 90°E
Pressure: 30.06"   Gusts: NA
Location:  52.34°N, 6.48°W
Report Text: EIWF 252030Z 09006KT CAVOK 03/02 Q1018 R03/1/////
Loading
Personal Weather Stations






























Interactive Weather Map New forecast layout! Learn more

10-Day Weather Forecast

Advertisements
Track Severe Weather on mobile